createdAt,value
2023-06-26T00:02:37.418Z,10.55
2023-06-26T00:05:25.473Z,8.77
2023-06-26T00:08:13.448Z,8.60
2023-06-26T00:11:01.210Z,9.85
2023-06-26T00:13:49.380Z,9.20
2023-06-26T00:16:37.707Z,9.70
2023-06-26T00:19:25.785Z,10.82
2023-06-26T00:22:13.747Z,9.80
2023-06-26T00:25:02.447Z,9.73
2023-06-26T00:27:50.288Z,9.70
2023-06-26T00:30:39.445Z,10.50
2023-06-26T00:33:27.386Z,9.50
2023-06-26T00:36:15.779Z,9.98
2023-06-26T00:39:05.095Z,9.10
2023-06-26T00:41:55.105Z,10.20
2023-06-26T00:44:42.882Z,9.77
2023-06-26T00:47:30.802Z,10.15
2023-06-26T00:50:19.073Z,9.88
2023-06-26T00:53:08.796Z,12.20
2023-06-26T00:55:57.368Z,10.07
2023-06-26T00:58:45.582Z,9.55
2023-06-26T01:01:33.501Z,10.00
2023-06-26T01:04:21.327Z,9.88
2023-06-26T01:07:09.279Z,8.93
2023-06-26T01:09:57.566Z,9.80
2023-06-26T01:12:46.781Z,9.75
2023-06-26T01:15:34.807Z,10.48
2023-06-26T01:18:22.960Z,9.38
2023-06-26T01:21:12.757Z,12.13
2023-06-26T01:24:21.628Z,9.82
2023-06-26T01:27:10.276Z,9.48
2023-06-26T01:29:58.750Z,9.98
2023-06-26T01:32:47.366Z,10.23
2023-06-26T01:35:35.873Z,11.32
2023-06-26T01:38:29.893Z,9.88
2023-06-26T01:41:19.131Z,9.75
2023-06-26T01:44:30.234Z,10.45
2023-06-26T01:47:23.336Z,9.18
2023-06-26T01:50:19.703Z,8.77
2023-06-26T01:53:15.407Z,9.20
2023-06-26T01:56:14.851Z,9.45
2023-06-26T01:59:06.938Z,9.38
2023-06-26T02:01:55.332Z,10.25
2023-06-26T02:04:43.282Z,9.48
2023-06-26T02:07:31.184Z,9.18
2023-06-26T02:10:19.732Z,8.73
2023-06-26T02:13:07.457Z,9.20
2023-06-26T02:15:55.229Z,9.50
2023-06-26T02:18:42.898Z,10.15
2023-06-26T02:21:30.672Z,9.48
2023-06-26T02:24:18.386Z,10.63
2023-06-26T02:27:06.066Z,11.75
2023-06-26T02:29:53.937Z,10.73
2023-06-26T02:32:41.852Z,10.90
2023-06-26T02:35:29.564Z,10.07
2023-06-26T02:38:17.568Z,12.15
2023-06-26T02:41:05.407Z,9.15
2023-06-26T02:43:53.129Z,10.10
2023-06-26T02:46:41.443Z,9.80
2023-06-26T02:49:29.210Z,10.95
2023-06-26T02:52:16.866Z,10.52
2023-06-26T02:55:06.606Z,10.55
2023-06-26T02:57:54.470Z,10.93
2023-06-26T03:00:42.620Z,8.85
2023-06-26T03:03:30.820Z,9.52
2023-06-26T03:06:18.529Z,11.55
2023-06-26T03:09:06.389Z,10.57
2023-06-26T03:11:54.289Z,10.32
2023-06-26T03:14:42.072Z,10.07
2023-06-26T03:17:29.854Z,12.02
2023-06-26T03:20:17.692Z,10.95
2023-06-26T03:23:05.290Z,10.43
2023-06-26T03:25:53.050Z,10.90
2023-06-26T03:28:40.710Z,14.38
2023-06-26T03:31:28.405Z,10.70
2023-06-26T03:34:16.111Z,10.57
2023-06-26T03:37:04.259Z,10.43
2023-06-26T03:39:51.968Z,11.15
2023-06-26T03:42:39.867Z,9.90
2023-06-26T03:45:27.568Z,10.25
2023-06-26T03:48:15.461Z,11.30
2023-06-26T03:51:03.587Z,12.02
2023-06-26T03:53:51.234Z,10.40
2023-06-26T03:56:39.370Z,11.02
2023-06-26T03:59:27.126Z,12.93
2023-06-26T04:02:15.009Z,14.07
2023-06-26T04:05:04.734Z,13.40
2023-06-26T04:07:53.186Z,10.40
2023-06-26T04:10:40.932Z,10.55
2023-06-26T04:13:28.673Z,12.35
2023-06-26T04:16:16.978Z,9.82
2023-06-26T04:19:06.209Z,10.55
2023-06-26T04:21:55.329Z,10.25
2023-06-26T04:24:47.221Z,9.48
2023-06-26T04:27:39.590Z,10.40
2023-06-26T04:30:31.338Z,9.90
2023-06-26T04:33:20.472Z,10.40
2023-06-26T04:36:09.794Z,9.45
2023-06-26T04:38:59.962Z,10.32
2023-06-26T04:41:50.144Z,9.85
2023-06-26T04:44:39.791Z,11.40
2023-06-26T04:47:31.331Z,10.02
2023-06-26T04:50:20.209Z,9.45
2023-06-26T04:53:09.712Z,9.93
2023-06-26T04:55:59.888Z,9.55
2023-06-26T04:58:48.943Z,11.13
2023-06-26T05:01:40.745Z,10.07
2023-06-26T05:04:30.033Z,10.45
2023-06-26T05:07:19.363Z,9.73
2023-06-26T05:10:07.599Z,11.75
2023-06-26T05:12:57.438Z,10.90
2023-06-26T05:15:50.183Z,12.48
2023-06-26T05:18:38.071Z,13.95
2023-06-26T05:21:27.896Z,13.30
2023-06-26T05:24:17.503Z,13.05
2023-06-26T05:27:07.050Z,13.20
2023-06-26T05:29:58.172Z,12.15
2023-06-26T05:32:50.523Z,14.10
2023-06-26T05:35:47.235Z,12.02
2023-06-26T05:38:36.442Z,12.98
2023-06-26T05:41:24.550Z,12.73
2023-06-26T05:44:14.338Z,13.68
2023-06-26T05:47:03.602Z,13.23
2023-06-26T05:49:53.849Z,15.20
2023-06-26T05:52:42.456Z,12.98
2023-06-26T05:55:30.479Z,14.15
2023-06-26T05:58:25.194Z,13.35
2023-06-26T06:01:14.164Z,13.75
2023-06-26T06:04:04.668Z,13.80
2023-06-26T06:06:55.252Z,12.57
2023-06-26T06:09:45.622Z,13.80
2023-06-26T06:12:35.370Z,13.65
2023-06-26T06:15:25.599Z,13.77
2023-06-26T06:18:15.720Z,13.95
2023-06-26T06:21:06.381Z,12.82
2023-06-26T06:23:56.656Z,15.88
2023-06-26T06:26:46.590Z,18.27
2023-06-26T06:29:36.449Z,13.90
2023-06-26T06:32:26.648Z,13.45
2023-06-26T06:35:14.584Z,13.23
2023-06-26T06:38:04.765Z,13.52
2023-06-26T06:40:54.059Z,13.30
2023-06-26T06:43:44.099Z,11.85
2023-06-26T06:46:36.562Z,10.48
2023-06-26T06:49:26.701Z,10.55
2023-06-26T06:52:16.969Z,9.93
2023-06-26T06:55:10.066Z,12.10
2023-06-26T06:58:01.188Z,9.40
2023-06-26T07:00:53.185Z,8.55
2023-06-26T07:03:43.333Z,10.55
2023-06-26T07:06:32.649Z,10.25
2023-06-26T07:09:22.178Z,8.98
2023-06-26T07:12:10.765Z,8.65
2023-06-26T07:15:01.842Z,8.95
2023-06-26T07:17:51.023Z,10.15
2023-06-26T07:20:41.521Z,9.48
2023-06-26T07:23:33.966Z,10.80
2023-06-26T07:26:36.120Z,11.70
2023-06-26T07:29:34.569Z,11.75
2023-06-26T07:32:24.694Z,9.88
2023-06-26T07:35:16.451Z,10.40
2023-06-26T07:38:06.203Z,10.80
2023-06-26T07:40:58.024Z,12.20
2023-06-26T07:43:47.940Z,10.10
2023-06-26T07:46:37.925Z,8.65
2023-06-26T07:49:27.048Z,14.35
2023-06-26T07:52:16.522Z,10.10
2023-06-26T07:55:05.473Z,8.60
2023-06-26T07:57:53.631Z,9.65
2023-06-26T08:00:43.861Z,12.98
2023-06-26T08:03:35.395Z,12.15
2023-06-26T08:06:26.560Z,9.52
2023-06-26T08:09:15.550Z,11.05
2023-06-26T08:12:05.054Z,10.00
2023-06-26T08:14:56.316Z,10.05
2023-06-26T08:17:46.946Z,8.90
2023-06-26T08:20:38.597Z,9.07
2023-06-26T08:23:29.345Z,10.77
2023-06-26T08:26:19.606Z,10.68
2023-06-26T08:29:12.131Z,10.57
2023-06-26T08:32:03.751Z,8.68
2023-06-26T08:34:55.309Z,12.57
2023-06-26T08:37:45.345Z,8.75
2023-06-26T08:40:35.518Z,10.85
2023-06-26T08:43:24.763Z,10.70
2023-06-26T08:46:15.594Z,10.65
2023-06-26T08:49:38.540Z,8.27
2023-06-26T08:52:44.724Z,9.00
2023-06-26T08:55:39.882Z,8.77
2023-06-26T08:58:30.667Z,8.75
2023-06-26T09:01:22.220Z,8.57
2023-06-26T09:04:12.033Z,7.25
2023-06-26T09:07:03.129Z,8.27
2023-06-26T09:09:52.985Z,6.95
2023-06-26T09:12:49.497Z,7.95
2023-06-26T09:15:44.279Z,7.93
2023-06-26T09:18:35.359Z,12.23
2023-06-26T09:21:27.908Z,6.13
2023-06-26T09:24:19.296Z,6.57
2023-06-26T09:27:09.359Z,8.68
2023-06-26T09:29:59.691Z,6.30
2023-06-26T09:32:55.575Z,8.77
2023-06-26T09:35:46.949Z,6.85
2023-06-26T09:38:37.177Z,6.20
2023-06-26T09:41:28.455Z,7.55
2023-06-26T09:44:20.587Z,7.20
2023-06-26T09:47:09.919Z,8.27
2023-06-26T09:49:59.800Z,7.88
2023-06-26T09:52:52.155Z,7.63
2023-06-26T09:55:45.162Z,6.50
2023-06-26T09:58:37.737Z,8.67
2023-06-26T10:01:28.578Z,8.70
2023-06-26T10:04:18.237Z,7.28
2023-06-26T10:07:12.999Z,7.07
2023-06-26T10:10:04.041Z,7.05
2023-06-26T10:13:00.503Z,6.90
2023-06-26T10:15:52.633Z,10.65
2023-06-26T10:18:43.606Z,8.55
2023-06-26T10:21:36.053Z,7.88
2023-06-26T10:24:27.905Z,7.35
2023-06-26T10:27:20.644Z,7.45
2023-06-26T10:30:14.397Z,7.20
2023-06-26T10:35:55.780Z,6.32
2023-06-26T10:38:55.163Z,6.85
2023-06-26T10:42:00.500Z,6.40
2023-06-26T10:44:56.755Z,6.60
2023-06-26T10:47:54.135Z,5.85
2023-06-26T10:50:44.829Z,6.60
2023-06-26T10:53:37.251Z,7.20
2023-06-26T10:56:47.466Z,6.45
2023-06-26T10:59:42.263Z,7.30
2023-06-26T11:02:51.660Z,8.27
2023-06-26T11:05:40.042Z,6.57
2023-06-26T11:08:56.174Z,6.70
2023-06-26T11:11:59.794Z,7.45
2023-06-26T11:14:50.146Z,10.32
2023-06-26T11:17:40.502Z,7.47
2023-06-26T11:20:30.518Z,7.13
2023-06-26T11:23:27.899Z,7.00
2023-06-26T11:26:22.418Z,7.38
2023-06-26T11:29:13.755Z,6.75
2023-06-26T11:32:08.649Z,7.43
2023-06-26T11:35:01.109Z,7.85
2023-06-26T11:37:50.897Z,6.28
2023-06-26T11:40:41.909Z,6.07
2023-06-26T11:43:32.265Z,6.13
2023-06-26T11:46:25.068Z,8.85
2023-06-26T11:49:17.935Z,6.35
2023-06-26T11:52:06.189Z,6.47
2023-06-26T11:54:57.277Z,6.07
2023-06-26T11:57:51.762Z,8.18
2023-06-26T12:00:48.639Z,7.00
2023-06-26T12:03:38.962Z,7.03
2023-06-26T12:06:32.873Z,8.63
2023-06-26T12:12:14.608Z,6.10
2023-06-26T12:15:05.701Z,6.88
2023-06-26T12:17:55.915Z,7.95
2023-06-26T12:20:46.182Z,6.95
2023-06-26T12:23:45.817Z,8.50
2023-06-26T12:26:40.304Z,7.82
2023-06-26T12:29:54.843Z,9.48
2023-06-26T12:32:50.483Z,7.63
2023-06-26T12:35:43.344Z,6.55
2023-06-26T12:38:37.129Z,6.57
2023-06-26T12:41:29.295Z,9.90
2023-06-26T12:44:26.590Z,6.30
2023-06-26T12:47:24.593Z,10.85
2023-06-26T12:50:18.046Z,10.10
2023-06-26T12:53:08.323Z,11.63
2023-06-26T12:55:57.505Z,6.63
2023-06-26T12:58:45.472Z,8.77
2023-06-26T13:01:35.513Z,10.65
2023-06-26T13:04:26.135Z,6.95
2023-06-26T13:07:16.988Z,9.43
2023-06-26T13:10:05.176Z,8.10
2023-06-26T13:12:56.408Z,8.02
2023-06-26T13:15:46.431Z,6.35
2023-06-26T13:18:36.885Z,7.85
2023-06-26T13:21:26.909Z,9.95
2023-06-26T13:24:18.335Z,8.63
2023-06-26T13:27:07.681Z,6.18
2023-06-26T13:29:57.947Z,7.45
2023-06-26T13:32:47.453Z,7.18
2023-06-26T13:35:36.846Z,5.28
2023-06-26T13:38:27.557Z,8.48
2023-06-26T13:41:17.585Z,8.23
2023-06-26T13:44:11.449Z,12.98
2023-06-26T13:47:10.047Z,9.48
2023-06-26T13:50:00.853Z,5.50
2023-06-26T13:52:50.528Z,5.95
2023-06-26T13:55:41.734Z,5.30
2023-06-26T13:58:33.609Z,7.20
2023-06-26T14:01:25.371Z,5.68
2023-06-26T14:04:15.357Z,4.85
2023-06-26T14:10:51.987Z,8.18
2023-06-26T14:13:42.534Z,7.72
2023-06-26T14:16:33.084Z,5.35
2023-06-26T14:19:23.568Z,3.80
2023-06-26T14:22:13.664Z,6.40
2023-06-26T14:25:04.868Z,7.72
2023-06-26T14:27:55.672Z,7.15
2023-06-26T14:30:47.875Z,5.55
2023-06-26T14:33:39.146Z,6.97
2023-06-26T14:36:28.346Z,4.72
2023-06-26T14:39:19.014Z,5.70
2023-06-26T14:42:10.407Z,5.80
2023-06-26T14:45:01.767Z,4.47
2023-06-26T14:47:52.095Z,7.90
2023-06-26T14:50:42.463Z,8.18
2023-06-26T14:53:32.670Z,7.50
2023-06-26T14:56:23.168Z,7.30
2023-06-26T14:59:13.807Z,5.28
2023-06-26T15:02:03.707Z,8.40
2023-06-26T15:04:53.963Z,5.35
2023-06-26T15:07:44.040Z,5.18
2023-06-26T15:10:34.554Z,8.15
2023-06-26T15:13:25.103Z,6.63
2023-06-26T15:16:14.336Z,5.45
2023-06-26T15:19:04.458Z,5.30
2023-06-26T15:21:54.690Z,3.72
2023-06-26T15:24:45.099Z,5.75
2023-06-26T15:27:37.034Z,5.38
2023-06-26T15:30:28.188Z,5.40
2023-06-26T15:33:20.264Z,6.43
2023-06-26T15:36:10.576Z,11.18
2023-06-26T15:39:00.140Z,7.00
2023-06-26T15:41:50.123Z,4.05
2023-06-26T15:44:40.512Z,5.63
2023-06-26T15:47:30.948Z,7.55
2023-06-26T15:50:21.749Z,3.22
2023-06-26T15:53:13.454Z,5.43
2023-06-26T15:56:07.147Z,6.32
2023-06-26T15:58:57.430Z,7.10
2023-06-26T16:01:50.003Z,7.57
2023-06-26T16:04:39.967Z,8.30
2023-06-26T16:07:37.869Z,3.83
2023-06-26T16:10:37.020Z,6.78
2023-06-26T16:13:26.712Z,4.78
2023-06-26T16:16:16.986Z,4.63
2023-06-26T16:19:06.656Z,5.38
2023-06-26T16:21:56.971Z,8.00
2023-06-26T16:24:46.020Z,8.50
2023-06-26T16:27:35.947Z,3.78
2023-06-26T16:30:25.105Z,5.03
2023-06-26T16:33:15.497Z,9.13
2023-06-26T16:36:04.585Z,5.22
2023-06-26T16:38:54.908Z,4.25
2023-06-26T16:41:45.150Z,6.60
2023-06-26T16:44:34.734Z,5.40
2023-06-26T16:47:29.999Z,5.25
2023-06-26T16:50:21.539Z,6.68
2023-06-26T16:53:11.839Z,8.57
2023-06-26T16:56:02.198Z,4.63
2023-06-26T16:58:52.732Z,3.83
2023-06-26T17:01:43.003Z,5.85
2023-06-26T17:04:33.299Z,4.55
2023-06-26T17:07:22.323Z,5.50
2023-06-26T17:10:10.461Z,4.60
2023-06-26T17:13:00.780Z,10.65
2023-06-26T17:15:49.542Z,10.30
2023-06-26T17:18:40.184Z,7.45
2023-06-26T17:21:28.085Z,7.78
2023-06-26T17:24:16.003Z,6.65
2023-06-26T17:27:15.911Z,4.10
2023-06-26T17:30:04.329Z,13.40
2023-06-26T17:32:55.887Z,6.93
2023-06-26T17:35:45.722Z,6.50
2023-06-26T17:38:38.423Z,9.85
2023-06-26T17:41:28.740Z,3.53
2023-06-26T17:44:16.530Z,5.82
2023-06-26T17:47:04.582Z,5.13
2023-06-26T17:49:52.380Z,5.60
2023-06-26T17:52:41.013Z,4.85
2023-06-26T17:55:28.934Z,7.13
2023-06-26T17:58:17.699Z,3.13
2023-06-26T18:01:05.400Z,7.80
2023-06-26T18:03:53.091Z,2.97
2023-06-26T18:06:40.864Z,8.10
2023-06-26T18:09:28.443Z,8.85
2023-06-26T18:12:16.140Z,5.95
2023-06-26T18:15:04.718Z,5.25
2023-06-26T18:17:52.574Z,3.95
2023-06-26T18:20:40.689Z,7.68
2023-06-26T18:23:28.648Z,7.38
2023-06-26T18:26:17.661Z,9.23
2023-06-26T18:29:05.400Z,4.32
2023-06-26T18:31:53.484Z,5.30
2023-06-26T18:34:41.280Z,4.70
2023-06-26T18:37:29.305Z,8.15
2023-06-26T18:40:18.301Z,5.85
2023-06-26T18:43:06.008Z,4.20
2023-06-26T18:45:54.362Z,3.83
2023-06-26T18:48:42.502Z,6.38
2023-06-26T18:51:31.351Z,8.40
2023-06-26T18:54:19.139Z,5.93
2023-06-26T18:57:06.918Z,3.58
2023-06-26T18:59:54.550Z,4.43
2023-06-26T19:02:42.419Z,5.28
2023-06-26T19:05:30.862Z,6.20
2023-06-26T19:08:18.667Z,6.45
2023-06-26T19:11:08.311Z,3.85
2023-06-26T19:13:56.004Z,5.38
2023-06-26T19:16:43.739Z,3.92
2023-06-26T19:19:31.851Z,5.97
2023-06-26T19:22:19.563Z,5.72
2023-06-26T19:25:07.825Z,6.38
2023-06-26T19:27:55.716Z,5.05
2023-06-26T19:30:43.548Z,5.57
2023-06-26T19:33:32.393Z,3.95
2023-06-26T19:36:22.628Z,7.35
2023-06-26T19:39:10.271Z,5.43
2023-06-26T19:41:58.022Z,6.90
2023-06-26T19:44:46.024Z,5.68
2023-06-26T19:47:34.528Z,4.50
2023-06-26T19:50:22.525Z,6.38
2023-06-26T19:53:10.210Z,8.27
2023-06-26T19:55:57.953Z,6.50
2023-06-26T19:58:45.586Z,7.78
2023-06-26T20:01:33.795Z,10.63
2023-06-26T20:04:21.875Z,6.80
2023-06-26T20:07:09.621Z,5.05
2023-06-26T20:09:57.260Z,3.88
2023-06-26T20:12:44.928Z,4.97
2023-06-26T20:15:32.682Z,8.20
2023-06-26T20:18:20.392Z,4.30
2023-06-26T20:21:08.041Z,3.80
2023-06-26T20:23:55.684Z,5.45
2023-06-26T20:26:44.852Z,8.23
2023-06-26T20:29:32.860Z,5.35
2023-06-26T20:32:20.582Z,4.45
2023-06-26T20:35:09.037Z,4.72
2023-06-26T20:37:57.056Z,9.45
2023-06-26T20:40:45.281Z,4.70
2023-06-26T20:43:34.014Z,3.40
2023-06-26T20:46:23.888Z,6.22
2023-06-26T20:49:11.776Z,9.32
2023-06-26T20:52:00.045Z,3.45
2023-06-26T20:54:47.714Z,6.00
2023-06-26T20:57:35.370Z,11.27
2023-06-26T21:00:24.027Z,8.18
2023-06-26T21:03:11.701Z,7.45
2023-06-26T21:05:59.283Z,6.10
2023-06-26T21:08:46.893Z,5.82
2023-06-26T21:11:34.516Z,6.53
2023-06-26T21:14:22.140Z,7.18
2023-06-26T21:17:09.880Z,8.40
2023-06-26T21:19:58.884Z,4.18
2023-06-26T21:22:46.512Z,9.25
2023-06-26T21:25:34.096Z,4.10
2023-06-26T21:28:21.759Z,3.80
2023-06-26T21:31:09.486Z,8.07
2023-06-26T21:33:57.217Z,3.67
2023-06-26T21:36:44.851Z,5.90
2023-06-26T21:39:33.211Z,5.65
2023-06-26T21:42:20.983Z,2.72
2023-06-26T21:45:08.978Z,4.88
2023-06-26T21:47:56.470Z,7.70
2023-06-26T21:50:44.258Z,6.97
2023-06-26T21:53:31.928Z,7.00
2023-06-26T21:56:19.563Z,3.75
2023-06-26T21:59:07.133Z,4.35
2023-06-26T22:01:54.707Z,5.97
2023-06-26T22:04:42.353Z,2.40
2023-06-26T22:07:33.298Z,4.07
2023-06-26T22:10:25.586Z,5.10
2023-06-26T22:13:13.513Z,3.65
2023-06-26T22:16:01.037Z,3.17
2023-06-26T22:18:48.665Z,8.13
2023-06-26T22:21:36.961Z,3.72
2023-06-26T22:24:24.610Z,6.55
2023-06-26T22:27:12.245Z,7.32
2023-06-26T22:29:59.748Z,5.22
2023-06-26T22:32:47.967Z,2.17
2023-06-26T22:35:35.667Z,2.60
2023-06-26T22:38:23.431Z,2.25
2023-06-26T22:41:10.956Z,2.47
2023-06-26T22:43:58.571Z,2.45
2023-06-26T22:46:46.177Z,2.67
2023-06-26T22:49:33.756Z,4.00
2023-06-26T22:52:21.325Z,2.97
2023-06-26T22:55:09.324Z,3.40
2023-06-26T22:57:57.543Z,2.92
2023-06-26T23:00:46.192Z,4.63
2023-06-26T23:03:33.989Z,4.47
2023-06-26T23:06:23.035Z,3.45
2023-06-26T23:09:11.572Z,2.75
2023-06-26T23:11:59.205Z,5.90
2023-06-26T23:14:47.127Z,4.55
2023-06-26T23:17:36.523Z,3.70
2023-06-26T23:20:24.366Z,4.80
2023-06-26T23:23:13.852Z,3.38
2023-06-26T23:26:01.414Z,2.35
2023-06-26T23:28:49.155Z,5.65
2023-06-26T23:31:38.133Z,3.42
2023-06-26T23:34:25.932Z,4.72
2023-06-26T23:37:14.058Z,3.45
2023-06-26T23:40:01.737Z,3.33
2023-06-26T23:42:49.461Z,4.05
2023-06-26T23:45:37.090Z,8.10
2023-06-26T23:48:24.709Z,4.50
2023-06-26T23:51:12.409Z,8.55
2023-06-26T23:54:00.245Z,3.15
2023-06-26T23:56:47.759Z,3.42
2023-06-26T23:59:35.748Z,4.18
